Time;durP1;ratioP1;P1;durP2;ratioP2;P2;SDS_P1;SDS_P2;PMS_P1;PMS_P2;Temp;Humidity;BMP_temperature;BMP_pressure;BME280_temperature;BME280_humidity;BME280_pressure;Samples;Min_cycle;Max_cycle;Signal;HPM_P1;HPM_P2
2022/01/26 00:06:26;;;;;;;645.40;597.22;;;2.90;99.90;;;;;;5052928;28;20487;-63
2022/01/26 00:08:51;;;;;;;601.17;554.72;;;3.00;99.90;;;;;;5072231;28;20041;-63
2022/01/26 00:11:17;;;;;;;682.60;630.47;;;2.90;99.90;;;;;;5072614;28;20880;-63
2022/01/26 00:13:43;;;;;;;665.05;613.40;;;2.90;99.90;;;;;;5073029;28;20044;-63
2022/01/26 00:16:18;;;;;;;668.67;614.72;;;2.90;99.90;;;;;;5072352;28;20044;-63
2022/01/26 00:18:44;;;;;;;657.97;605.58;;;2.80;99.90;;;;;;5056110;28;20072;-63
2022/01/26 00:21:17;;;;;;;648.38;598.00;;;2.80;99.90;;;;;;5051547;28;20106;-63
2022/01/26 00:24:06;;;;;;;635.70;584.95;;;2.80;99.90;;;;;;5052944;28;20506;-63
2022/01/26 00:26:48;;;;;;;638.55;587.83;;;2.80;99.90;;;;;;5070872;28;20174;-63
2022/01/26 00:29:16;;;;;;;717.88;659.53;;;2.70;99.90;;;;;;5072646;28;20496;-63
2022/01/26 00:40:36;;;;;;;699.63;641.78;;;2.70;99.90;;;;;;5072289;28;20120;-63
2022/01/26 00:43:15;;;;;;;702.78;648.97;;;2.80;99.90;;;;;;5072086;28;20498;-63
2022/01/26 00:45:41;;;;;;;692.88;639.40;;;2.80;99.90;;;;;;5072850;28;20045;-63
2022/01/26 00:48:09;;;;;;;620.80;570.72;;;2.80;99.90;;;;;;5064765;28;20041;-63
2022/01/26 00:50:37;;;;;;;699.20;644.72;;;2.70;99.90;;;;;;5052391;28;20053;-63
2022/01/26 00:53:04;;;;;;;656.88;606.40;;;2.70;99.90;;;;;;5071167;28;20052;-63
2022/01/26 00:55:30;;;;;;;655.03;604.58;;;2.70;99.90;;;;;;5072021;28;20053;-63
2022/01/26 00:57:56;;;;;;;619.38;571.83;;;2.70;99.90;;;;;;5071188;28;20045;-63
2022/01/26 01:00:25;;;;;;;642.83;592.22;;;2.70;99.90;;;;;;5071277;28;20052;-63
2022/01/26 01:02:53;;;;;;;706.92;651.20;;;2.70;99.90;;;;;;5072680;28;20041;-63
2022/01/26 01:05:23;;;;;;;675.03;620.72;;;2.70;99.90;;;;;;5072280;28;20044;-62
2022/01/26 01:07:55;;;;;;;698.10;643.67;;;2.70;99.90;;;;;;5071776;28;20048;-63
2022/01/26 01:10:23;;;;;;;653.38;602.40;;;2.70;99.90;;;;;;5056523;28;20049;-63
2022/01/26 01:12:54;;;;;;;692.08;638.13;;;2.70;99.90;;;;;;5052347;28;20111;-63
2022/01/26 01:15:20;;;;;;;720.65;664.38;;;2.70;99.90;;;;;;5051789;28;20055;-63
2022/01/26 01:17:51;;;;;;;688.90;635.92;;;2.70;99.90;;;;;;5055877;28;20033;-63
2022/01/26 01:30:42;;;;;;;773.65;712.05;;;2.70;99.90;;;;;;5075389;28;20055;-63
2022/01/26 01:33:10;;;;;;;693.65;639.22;;;2.70;99.90;;;;;;5076193;28;20120;-63
2022/01/26 01:35:39;;;;;;;728.10;671.80;;;2.70;99.90;;;;;;5074517;28;20051;-63
2022/01/26 01:38:10;;;;;;;664.03;611.67;;;2.70;99.90;;;;;;5076110;28;20055;-63
2022/01/26 01:40:38;;;;;;;700.90;646.53;;;2.70;99.90;;;;;;5075931;28;20076;-63
2022/01/26 01:43:05;;;;;;;683.88;629.85;;;2.70;99.90;;;;;;5074864;28;20049;-63
2022/01/26 01:45:34;;;;;;;694.63;640.08;;;2.60;99.90;;;;;;5075481;28;20062;-63
2022/01/26 01:48:00;;;;;;;683.20;630.55;;;2.70;99.90;;;;;;5069650;28;20155;-63
2022/01/26 01:50:26;;;;;;;673.05;621.38;;;2.70;99.90;;;;;;5054900;28;20080;-63
2022/01/26 01:52:59;;;;;;;704.40;650.22;;;2.80;99.90;;;;;;5056939;28;20116;-63
2022/01/26 01:55:28;;;;;;;686.95;633.63;;;2.80;99.90;;;;;;5075903;28;20497;-63
2022/01/26 01:57:55;;;;;;;677.25;624.78;;;2.80;99.90;;;;;;5074829;28;20047;-63
2022/01/26 02:00:21;;;;;;;669.45;618.42;;;2.80;99.90;;;;;;5075635;28;20094;-63
2022/01/26 02:02:47;;;;;;;675.25;621.58;;;2.80;99.90;;;;;;5064975;28;20053;-63
2022/01/26 02:05:13;;;;;;;704.20;649.53;;;2.70;99.90;;;;;;5054537;28;20057;-63
2022/01/26 02:07:38;;;;;;;713.33;658.78;;;2.70;99.90;;;;;;5055304;28;20061;-63
2022/01/26 02:10:05;;;;;;;668.38;615.85;;;2.70;99.90;;;;;;5055585;28;20471;-63
2022/01/26 02:12:33;;;;;;;700.10;645.53;;;2.60;99.90;;;;;;5071860;28;20042;-63
2022/01/26 02:15:08;;;;;;;700.88;645.97;;;2.60;99.90;;;;;;5075431;28;20479;-62
2022/01/26 02:55:44;;;;;;;758.00;696.80;;;2.50;99.90;;;;;;5063074;28;20045;-63
2022/01/26 03:01:17;;;;;;;745.10;686.15;;;2.50;99.90;;;;;;5073868;28;20113;-63
2022/01/26 03:03:53;;;;;;;709.60;654.05;;;2.50;99.90;;;;;;5073649;28;20045;-63
2022/01/26 03:06:26;;;;;;;740.63;681.60;;;2.50;99.90;;;;;;5074244;28;20056;-63
2022/01/26 03:08:58;;;;;;;719.38;662.38;;;2.50;99.90;;;;;;5073405;28;20049;-62
2022/01/26 03:11:28;;;;;;;789.80;727.30;;;2.50;99.90;;;;;;5074110;28;20049;-62
2022/01/26 03:14:02;;;;;;;698.33;643.42;;;2.50;99.90;;;;;;5059772;28;20549;-63
2022/01/26 03:16:35;;;;;;;716.40;660.67;;;2.50;99.90;;;;;;5054085;28;20461;-63
2022/01/26 03:22:03;;;;;;;749.22;690.60;;;2.50;99.90;;;;;;5058036;28;20036;-63
2022/01/26 03:30:21;;;;;;;721.35;664.22;;;2.50;99.90;;;;;;5073184;28;20056;-63
2022/01/26 03:35:16;;;;;;;745.28;687.67;;;2.50;99.90;;;;;;5032860;28;20057;-63
2022/01/26 03:37:52;;;;;;;702.60;646.22;;;2.50;99.90;;;;;;5034110;28;20079;-63
2022/01/26 03:40:19;;;;;;;679.08;625.53;;;2.40;99.90;;;;;;5056104;28;20135;-63
2022/01/26 03:42:45;;;;;;;763.22;702.13;;;2.50;99.90;;;;;;5072836;28;20049;-63
2022/01/26 03:45:11;;;;;;;718.88;662.05;;;2.50;99.90;;;;;;5073353;28;20047;-63
2022/01/26 03:47:37;;;;;;;697.75;641.88;;;2.50;99.90;;;;;;5070498;28;20479;-63
2022/01/26 03:50:03;;;;;;;726.05;669.80;;;2.50;99.90;;;;;;5071426;28;20091;-63
2022/01/26 03:52:29;;;;;;;718.00;660.30;;;2.50;99.90;;;;;;5073564;28;20037;-63
2022/01/26 03:54:55;;;;;;;705.33;648.42;;;2.50;99.90;;;;;;5073232;28;20059;-63
2022/01/26 03:57:20;;;;;;;678.15;624.90;;;2.50;99.90;;;;;;5071878;28;20120;-63
2022/01/26 03:59:46;;;;;;;701.10;646.90;;;2.50;99.90;;;;;;5073462;28;20087;-63
2022/01/26 04:02:12;;;;;;;708.70;652.42;;;2.50;99.90;;;;;;5073422;28;20547;-62
2022/01/26 04:04:46;;;;;;;706.75;649.25;;;2.50;99.90;;;;;;5072113;28;20044;-62
2022/01/26 04:07:11;;;;;;;700.08;646.72;;;2.50;99.90;;;;;;5072537;28;20053;-63
2022/01/26 04:09:37;;;;;;;717.13;660.17;;;2.50;99.90;;;;;;5073289;28;20130;-62
2022/01/26 04:12:03;;;;;;;705.65;650.13;;;2.50;99.90;;;;;;5072269;28;20489;-63
2022/01/26 04:14:32;;;;;;;720.50;663.70;;;2.40;99.90;;;;;;5072755;28;20053;-63
2022/01/26 04:16:58;;;;;;;709.63;653.58;;;2.40;99.90;;;;;;5071163;28;20120;-63
2022/01/26 04:19:25;;;;;;;721.30;663.60;;;2.40;99.90;;;;;;5052211;28;20144;-63
2022/01/26 04:24:22;;;;;;;719.47;664.42;;;2.40;99.90;;;;;;5061639;28;20045;-63
2022/01/26 04:26:56;;;;;;;704.63;650.60;;;2.40;99.90;;;;;;5072833;28;20051;-64
2022/01/26 04:29:27;;;;;;;732.63;676.70;;;2.50;99.90;;;;;;5072997;28;20067;-63
2022/01/26 04:31:53;;;;;;;720.17;666.22;;;2.50;99.90;;;;;;5072418;28;20063;-62
2022/01/26 04:34:19;;;;;;;719.40;664.47;;;2.50;99.90;;;;;;5072042;28;20041;-63
2022/01/26 04:36:53;;;;;;;697.90;643.55;;;2.50;99.90;;;;;;5073060;28;20052;-63
2022/01/26 04:39:27;;;;;;;678.20;625.45;;;2.50;99.90;;;;;;5072173;28;20046;-63
2022/01/26 04:42:00;;;;;;;699.00;643.60;;;2.50;99.90;;;;;;5072149;28;20386;-63
2022/01/26 04:44:32;;;;;;;709.72;655.85;;;2.50;99.90;;;;;;5071687;28;20044;-63
2022/01/26 04:46:58;;;;;;;688.85;636.20;;;2.50;99.90;;;;;;5071885;28;20049;-63
2022/01/26 04:49:23;;;;;;;693.47;640.92;;;2.50;99.90;;;;;;5054762;28;20433;-62
2022/01/26 04:51:49;;;;;;;723.55;668.70;;;2.50;99.90;;;;;;5070604;28;20094;-63
2022/01/26 04:54:16;;;;;;;746.85;690.92;;;2.50;99.90;;;;;;5072065;28;20045;-63
2022/01/26 04:56:41;;;;;;;717.20;662.63;;;2.40;99.90;;;;;;5075350;28;20045;-62
2022/01/26 04:59:07;;;;;;;699.20;647.28;;;2.40;99.90;;;;;;5076451;28;20474;-63
2022/01/26 05:01:33;;;;;;;724.70;670.85;;;2.40;99.90;;;;;;5075920;28;20127;-63
2022/01/26 05:03:59;;;;;;;659.35;609.65;;;2.40;99.90;;;;;;5076254;28;20467;-62
2022/01/26 05:06:25;;;;;;;709.33;654.70;;;2.40;99.90;;;;;;5075744;28;20048;-63
2022/01/26 05:08:50;;;;;;;673.72;623.75;;;2.40;99.90;;;;;;5064010;28;20051;-63
2022/01/26 05:11:27;;;;;;;724.13;668.97;;;2.40;99.90;;;;;;5055119;28;20103;-63
2022/01/26 05:13:54;;;;;;;722.42;667.47;;;2.30;99.90;;;;;;5055821;28;20094;-62
2022/01/26 05:16:20;;;;;;;685.97;635.30;;;2.30;99.90;;;;;;5057369;28;20076;-63
2022/01/26 05:18:45;;;;;;;734.58;678.28;;;2.30;99.90;;;;;;5059416;28;20470;-63
2022/01/26 05:21:11;;;;;;;696.70;644.28;;;2.20;99.90;;;;;;5055684;28;20048;-62
2022/01/26 05:23:37;;;;;;;698.97;645.13;;;2.20;99.90;;;;;;5056421;28;20052;-64
2022/01/26 05:26:03;;;;;;;740.25;684.47;;;2.20;99.90;;;;;;5054307;28;20044;-63
2022/01/26 05:28:28;;;;;;;734.08;677.63;;;2.20;99.90;;;;;;5055197;28;20159;-63
2022/01/26 05:30:54;;;;;;;701.83;649.00;;;2.20;99.90;;;;;;5056369;28;20127;-63
2022/01/26 05:33:23;;;;;;;709.42;656.25;;;2.20;99.90;;;;;;5055942;28;20033;-63
2022/01/26 05:35:50;;;;;;;745.92;689.40;;;2.30;99.90;;;;;;5070848;28;20526;-63
2022/01/26 05:38:16;;;;;;;753.17;696.42;;;2.20;99.90;;;;;;5075111;28;20041;-62
2022/01/26 05:40:41;;;;;;;681.42;631.53;;;2.30;99.90;;;;;;5075700;28;20504;-63
2022/01/26 05:43:07;;;;;;;701.45;648.95;;;2.30;99.90;;;;;;5074515;28;20041;-63
2022/01/26 05:45:36;;;;;;;665.50;616.88;;;2.20;99.90;;;;;;5075914;28;20041;-63
2022/01/26 05:48:04;;;;;;;710.70;657.85;;;2.30;99.90;;;;;;5069273;28;20047;-63
2022/01/26 05:50:31;;;;;;;717.70;664.20;;;2.20;99.90;;;;;;5055219;28;20045;-63
2022/01/26 05:52:57;;;;;;;682.70;633.42;;;2.20;99.90;;;;;;5066799;28;20091;-63
2022/01/26 05:55:23;;;;;;;715.88;663.33;;;2.30;99.90;;;;;;5075283;28;20087;-63
2022/01/26 05:57:49;;;;;;;725.05;670.50;;;2.20;99.90;;;;;;5074841;28;20044;-63
2022/01/26 06:00:15;;;;;;;700.53;648.80;;;2.20;99.90;;;;;;5075772;28;20394;-63
2022/01/26 06:02:42;;;;;;;680.35;630.83;;;2.20;99.90;;;;;;5074135;28;20440;-63
2022/01/26 06:05:08;;;;;;;693.67;642.35;;;2.20;99.90;;;;;;5075369;28;20047;-63
2022/01/26 06:07:34;;;;;;;735.58;681.58;;;2.20;99.90;;;;;;5075031;28;20106;-62
2022/01/26 06:10:00;;;;;;;697.42;646.40;;;2.20;99.90;;;;;;5072599;28;20056;-63
2022/01/26 06:12:26;;;;;;;674.00;625.00;;;2.20;99.90;;;;;;5075189;28;20066;-62
2022/01/26 06:14:52;;;;;;;702.13;651.45;;;2.20;99.90;;;;;;5075361;28;20037;-63
2022/01/26 06:17:18;;;;;;;686.50;636.42;;;2.20;99.90;;;;;;5069888;28;20497;-63
2022/01/26 06:19:44;;;;;;;758.33;701.45;;;2.10;99.90;;;;;;5056639;28;20506;-62
2022/01/26 06:22:10;;;;;;;746.78;691.35;;;2.10;99.90;;;;;;5055435;28;20043;-63
2022/01/26 06:24:35;;;;;;;693.78;642.78;;;2.10;99.90;;;;;;5052715;28;20060;-63
2022/01/26 06:27:01;;;;;;;747.15;692.58;;;2.10;99.90;;;;;;5055229;28;20045;-62
2022/01/26 06:29:28;;;;;;;765.17;708.63;;;2.10;99.90;;;;;;5075353;28;20048;-62
2022/01/26 06:31:54;;;;;;;805.67;745.28;;;2.00;99.90;;;;;;5074075;28;20551;-62
2022/01/26 06:34:20;;;;;;;771.30;713.83;;;2.10;99.90;;;;;;5075007;28;20041;-63
2022/01/26 06:36:46;;;;;;;791.28;732.15;;;2.10;99.90;;;;;;5074759;28;20041;-62
2022/01/26 06:39:13;;;;;;;758.78;702.80;;;2.10;99.90;;;;;;5074068;28;20056;-64
2022/01/26 06:41:46;;;;;;;780.97;724.78;;;2.10;99.90;;;;;;5074943;28;20036;-64
2022/01/26 06:44:20;;;;;;;761.42;707.08;;;2.10;99.90;;;;;;5074912;28;20044;-63
2022/01/26 06:46:59;;;;;;;774.17;716.92;;;2.10;99.90;;;;;;5073459;28;20040;-63
2022/01/26 06:51:52;;;;;;;760.65;702.20;;;2.00;99.90;;;;;;5054738;28;20087;-63
2022/01/26 06:54:18;;;;;;;749.60;693.47;;;2.00;99.90;;;;;;5053862;28;20479;-63
2022/01/26 06:56:45;;;;;;;812.20;750.25;;;2.10;99.90;;;;;;5054529;28;20094;-62
2022/01/26 06:59:12;;;;;;;747.50;693.33;;;2.10;99.90;;;;;;5053874;28;20101;-63
2022/01/26 07:01:39;;;;;;;766.45;710.20;;;2.10;99.90;;;;;;5054189;28;20049;-63
2022/01/26 07:04:05;;;;;;;726.58;673.45;;;2.10;99.90;;;;;;5068024;28;20060;-63
2022/01/26 07:06:31;;;;;;;754.60;698.72;;;2.00;99.90;;;;;;5073546;28;20080;-63
2022/01/26 07:08:56;;;;;;;754.30;698.75;;;2.10;99.90;;;;;;5074181;28;20092;-63
2022/01/26 07:11:22;;;;;;;768.33;708.85;;;2.00;99.90;;;;;;5073912;28;20048;-63
2022/01/26 07:13:50;;;;;;;749.25;692.78;;;2.10;99.90;;;;;;5073699;28;20529;-63
2022/01/26 07:21:44;;;;;;;750.88;693.70;;;2.10;99.90;;;;;;5067004;28;20071;-63
2022/01/26 07:24:10;;;;;;;698.50;647.63;;;2.10;99.90;;;;;;5073742;28;20482;-63
2022/01/26 07:26:37;;;;;;;663.80;615.50;;;2.10;99.90;;;;;;5074177;28;20132;-63
2022/01/26 07:29:07;;;;;;;712.53;660.60;;;2.20;99.90;;;;;;5072849;28;20056;-63
2022/01/26 07:31:35;;;;;;;721.25;667.25;;;2.20;99.90;;;;;;5073413;28;20110;-63
2022/01/26 07:34:01;;;;;;;735.95;681.65;;;2.20;99.90;;;;;;5073728;28;20632;-64
2022/01/26 07:36:27;;;;;;;764.90;708.55;;;2.10;99.90;;;;;;5073303;28;20123;-61
2022/01/26 07:39:04;;;;;;;717.90;663.80;;;2.20;99.90;;;;;;5072980;28;20457;-60
2022/01/26 07:41:30;;;;;;;729.10;673.90;;;2.20;99.90;;;;;;5071844;28;20044;-61
2022/01/26 07:43:55;;;;;;;712.28;659.45;;;2.20;99.90;;;;;;5073795;28;20052;-60
2022/01/26 07:46:22;;;;;;;692.92;641.67;;;2.20;99.90;;;;;;5073396;28;20044;-61
2022/01/26 07:48:48;;;;;;;749.58;694.00;;;2.20;99.90;;;;;;5059607;28;20137;-61
2022/01/26 07:51:14;;;;;;;705.92;654.50;;;2.20;99.90;;;;;;5053692;28;20475;-62
2022/01/26 07:53:40;;;;;;;724.78;671.28;;;2.20;99.90;;;;;;5053083;28;20080;-61
2022/01/26 07:56:05;;;;;;;705.38;653.55;;;2.20;99.90;;;;;;5057490;28;20040;-61
2022/01/26 07:58:31;;;;;;;738.88;684.50;;;2.20;99.90;;;;;;5073481;28;20478;-61
2022/01/26 08:00:57;;;;;;;809.15;747.50;;;2.20;99.90;;;;;;5073357;28;20087;-61
2022/01/26 08:03:23;;;;;;;697.67;647.05;;;2.20;99.90;;;;;;5072713;28;20055;-60
2022/01/26 08:05:49;;;;;;;733.65;678.90;;;2.30;99.90;;;;;;5072744;28;20052;-61
2022/01/26 08:08:15;;;;;;;686.15;635.63;;;2.20;99.90;;;;;;5072656;28;20052;-61
2022/01/26 08:10:41;;;;;;;753.28;698.10;;;2.20;99.90;;;;;;5072555;28;20083;-61
2022/01/26 08:13:06;;;;;;;715.60;662.83;;;2.30;99.90;;;;;;5073231;28;20082;-61
2022/01/26 08:15:32;;;;;;;748.05;692.28;;;2.20;99.90;;;;;;5072469;28;20060;-61
2022/01/26 08:17:59;;;;;;;707.45;655.17;;;2.30;99.90;;;;;;5062334;28;20045;-61
2022/01/26 08:20:25;;;;;;;682.38;632.28;;;2.30;99.90;;;;;;5052958;28;20051;-61
2022/01/26 08:22:53;;;;;;;761.90;704.80;;;2.30;99.90;;;;;;5059441;28;20045;-61
2022/01/26 08:25:21;;;;;;;729.20;675.33;;;2.30;99.90;;;;;;5072088;28;20048;-61
2022/01/26 08:27:53;;;;;;;715.13;661.67;;;2.30;99.90;;;;;;5072746;28;20071;-60
2022/01/26 08:30:20;;;;;;;723.95;670.30;;;2.40;99.90;;;;;;5072194;28;20435;-61
2022/01/26 08:32:46;;;;;;;733.22;678.40;;;2.40;99.90;;;;;;5072239;28;20059;-61
2022/01/26 08:35:12;;;;;;;817.22;754.83;;;2.40;99.90;;;;;;5073002;28;20475;-61
2022/01/26 08:37:38;;;;;;;715.63;662.15;;;2.30;99.90;;;;;;5059367;28;20041;-61
2022/01/26 08:40:05;;;;;;;718.35;664.70;;;2.40;99.90;;;;;;5068140;28;20520;-61
2022/01/26 08:42:31;;;;;;;736.92;681.53;;;2.40;99.90;;;;;;5051604;28;20379;-61
2022/01/26 08:44:57;;;;;;;757.78;701.40;;;2.40;99.90;;;;;;5050466;28;20095;-61
2022/01/26 08:47:23;;;;;;;717.65;661.92;;;2.30;99.90;;;;;;5051681;28;20119;-61
2022/01/26 08:49:49;;;;;;;730.60;675.70;;;2.30;99.90;;;;;;5052028;28;20159;-61
2022/01/26 08:52:15;;;;;;;683.10;632.60;;;2.30;99.90;;;;;;5051138;28;20044;-61
2022/01/26 08:54:40;;;;;;;721.47;667.25;;;2.40;99.90;;;;;;5052017;28;20068;-61
2022/01/26 08:57:07;;;;;;;716.40;663.15;;;2.40;99.90;;;;;;5051814;28;20049;-61
2022/01/26 08:59:32;;;;;;;687.55;635.00;;;2.30;99.90;;;;;;5051692;28;20076;-63
2022/01/26 09:01:58;;;;;;;721.15;665.45;;;2.40;99.90;;;;;;5051507;28;20084;-63
2022/01/26 09:04:24;;;;;;;703.78;650.28;;;2.40;99.90;;;;;;5052072;28;20139;-63
2022/01/26 09:06:52;;;;;;;743.50;687.92;;;2.40;99.90;;;;;;5051117;28;20107;-63
2022/01/26 09:09:20;;;;;;;765.47;707.35;;;2.40;99.90;;;;;;5052711;28;20120;-63
2022/01/26 09:11:48;;;;;;;674.75;622.75;;;2.40;99.90;;;;;;5052411;28;20048;-63
2022/01/26 09:14:19;;;;;;;764.97;706.65;;;2.40;99.90;;;;;;5051551;28;20498;-63
2022/01/26 09:16:46;;;;;;;749.75;692.75;;;2.50;99.90;;;;;;5065997;28;20177;-63
2022/01/26 09:19:25;;;;;;;760.60;701.50;;;2.40;99.90;;;;;;5052440;28;20048;-61
2022/01/26 09:21:51;;;;;;;713.70;658.95;;;2.60;99.90;;;;;;5050809;28;20045;-60
2022/01/26 09:24:18;;;;;;;735.33;678.65;;;2.40;99.90;;;;;;5051812;28;20521;-61
2022/01/26 09:26:43;;;;;;;752.28;693.72;;;2.40;99.90;;;;;;5051825;28;20045;-61
2022/01/26 09:29:09;;;;;;;790.50;725.63;;;2.40;99.90;;;;;;5052233;28;20463;-61
2022/01/26 09:31:36;;;;;;;749.45;689.78;;;2.50;99.90;;;;;;5052595;28;20041;-61
2022/01/26 09:34:02;;;;;;;760.17;699.33;;;2.50;99.90;;;;;;5061238;28;20041;-61
2022/01/26 09:36:28;;;;;;;758.10;698.47;;;2.50;99.90;;;;;;5051460;28;20059;-60
2022/01/26 09:38:53;;;;;;;706.22;650.47;;;2.50;99.90;;;;;;5051597;28;20116;-59
2022/01/26 09:41:20;;;;;;;730.05;671.17;;;2.50;99.90;;;;;;5049033;28;20052;-61
2022/01/26 09:43:46;;;;;;;723.00;665.60;;;2.50;99.90;;;;;;5055728;28;20457;-61
2022/01/26 09:46:13;;;;;;;710.85;653.70;;;2.60;99.90;;;;;;5055291;28;20040;-61
2022/01/26 09:48:39;;;;;;;728.65;670.70;;;2.60;99.90;;;;;;5052430;28;20045;-61
2022/01/26 09:51:06;;;;;;;748.45;686.78;;;2.60;99.90;;;;;;5054559;28;20053;-61
2022/01/26 09:53:33;;;;;;;687.15;631.67;;;2.60;99.90;;;;;;5066125;28;20041;-61
2022/01/26 09:55:59;;;;;;;716.65;659.72;;;2.70;99.90;;;;;;5074898;28;20101;-61
2022/01/26 09:58:26;;;;;;;718.17;661.40;;;2.70;99.90;;;;;;5075406;28;20049;-61
2022/01/26 10:00:58;;;;;;;724.85;668.47;;;2.70;99.90;;;;;;5069392;28;20094;-61
2022/01/26 10:03:30;;;;;;;742.08;684.28;;;2.80;99.90;;;;;;5055236;28;20057;-61
2022/01/26 10:05:56;;;;;;;750.78;692.80;;;2.80;99.90;;;;;;5054825;28;20053;-61
2022/01/26 10:08:49;;;;;;;787.60;725.67;;;2.90;99.90;;;;;;5053340;28;20056;-61
2022/01/26 10:19:05;;;;;;;793.17;734.45;;;3.10;99.90;;;;;;5065898;28;20033;-61
2022/01/26 10:21:31;;;;;;;755.17;697.15;;;3.10;99.90;;;;;;5060635;28;20053;-62
2022/01/26 10:24:07;;;;;;;741.40;685.08;;;3.10;99.90;;;;;;5034666;28;20055;-61
2022/01/26 10:26:33;;;;;;;707.97;653.17;;;3.70;99.90;;;;;;5040461;28;20082;-61
2022/01/26 10:29:02;;;;;;;742.55;685.72;;;3.20;99.90;;;;;;5065240;28;20605;-61
2022/01/26 10:31:39;;;;;;;717.08;661.03;;;3.10;99.90;;;;;;5058793;28;20048;-61
2022/01/26 10:34:14;;;;;;;751.30;693.65;;;3.10;99.90;;;;;;5054732;28;20044;-61
2022/01/26 10:36:43;;;;;;;742.47;686.63;;;3.30;99.90;;;;;;5057262;28;20453;-61
2022/01/26 10:39:13;;;;;;;725.75;671.10;;;3.20;99.90;;;;;;5053908;28;20045;-62
2022/01/26 10:41:43;;;;;;;695.95;642.67;;;3.20;99.90;;;;;;5052231;28;20053;-61
2022/01/26 10:44:09;;;;;;;724.97;671.75;;;3.20;99.90;;;;;;5053186;28;20052;-62
2022/01/26 10:46:40;;;;;;;657.10;608.35;;;3.30;99.90;;;;;;5062460;28;20048;-61
2022/01/26 10:51:53;;;;;;;694.53;643.03;;;3.40;99.90;;;;;;5033309;28;20872;-62
2022/01/26 10:54:25;;;;;;;668.80;618.33;;;3.40;99.90;;;;;;5064439;28;20056;-62
2022/01/26 10:56:51;;;;;;;680.30;629.25;;;3.40;99.90;;;;;;5074783;28;20489;-61
2022/01/26 10:59:18;;;;;;;675.75;624.15;;;3.40;99.90;;;;;;5073484;28;20053;-62
2022/01/26 11:01:44;;;;;;;677.50;626.20;;;3.40;99.90;;;;;;5073961;28;20111;-61
2022/01/26 11:04:10;;;;;;;707.78;655.55;;;3.50;99.90;;;;;;5074371;28;20136;-61
2022/01/26 11:06:37;;;;;;;715.45;662.92;;;3.50;99.90;;;;;;5073401;28;20060;-61
2022/01/26 11:09:10;;;;;;;705.90;653.35;;;3.50;99.90;;;;;;5074513;28;20063;-61
2022/01/26 11:11:39;;;;;;;;;;;3.50;99.90;;;;;;5074438;28;20122;-61
2022/01/26 11:14:14;;;;;;;817.47;753.97;;;3.50;99.90;;;;;;5057282;28;19921;-61
2022/01/26 11:16:54;;;;;;;745.15;688.72;;;3.50;99.90;;;;;;5053201;28;20055;-61
2022/01/26 11:19:22;;;;;;;723.70;670.10;;;3.50;99.90;;;;;;5043574;28;20123;-61
2022/01/26 11:21:49;;;;;;;761.90;704.13;;;3.50;99.90;;;;;;5074118;28;20048;-61
2022/01/26 11:24:19;;;;;;;707.45;653.25;;;3.50;99.90;;;;;;5073906;28;20044;-62
2022/01/26 11:26:47;;;;;;;723.42;667.13;;;3.50;99.90;;;;;;5073013;28;20448;-61
2022/01/26 11:29:22;;;;;;;771.20;709.97;;;3.50;99.90;;;;;;5073501;28;20041;-61
2022/01/26 11:32:13;;;;;;;694.70;641.13;;;3.50;99.90;;;;;;5074067;28;20049;-61
2022/01/26 11:34:40;;;;;;;777.55;718.67;;;3.60;99.90;;;;;;5072766;28;20055;-61
2022/01/26 11:37:09;;;;;;;730.65;674.20;;;3.60;99.90;;;;;;5070565;28;20053;-61
2022/01/26 11:45:03;;;;;;;693.78;639.70;;;3.50;99.90;;;;;;5052758;28;20041;-62
2022/01/26 11:45:22;;;;;;;714.63;659.47;;;3.60;99.90;;;;;;5053597;28;20394;-62
2022/01/26 11:48:01;;;;;;;714.05;659.70;;;3.60;99.90;;;;;;5066826;28;20045;-61
2022/01/26 11:50:29;;;;;;;729.20;674.50;;;3.60;99.90;;;;;;5053386;28;20049;-61
2022/01/26 11:53:03;;;;;;;707.67;651.78;;;3.60;99.90;;;;;;5053735;28;20055;-60
2022/01/26 11:55:39;;;;;;;698.55;644.17;;;3.60;99.90;;;;;;5061753;28;20076;-60
2022/01/26 11:58:15;;;;;;;699.25;641.03;;;3.70;99.90;;;;;;5073139;28;20040;-61
2022/01/26 12:00:58;;;;;;;667.08;612.88;;;3.60;99.90;;;;;;5073563;28;20048;-60
2022/01/26 12:03:26;;;;;;;;;;;3.70;99.90;;;;;;5072677;28;20040;-62
2022/01/26 12:05:56;;;;;;;784.63;724.45;;;3.60;99.90;;;;;;5054002;28;20046;-61
2022/01/26 12:08:33;;;;;;;723.83;662.47;;;3.70;99.90;;;;;;5053070;28;20121;-61
2022/01/26 12:11:00;;;;;;;689.35;633.10;;;3.70;99.90;;;;;;5053136;28;20052;-61
2022/01/26 12:13:29;;;;;;;721.53;662.70;;;3.80;99.90;;;;;;5064194;28;20049;-61
2022/01/26 12:16:04;;;;;;;679.80;623.65;;;3.80;99.90;;;;;;5055677;28;20049;-61
2022/01/26 12:32:25;;;;;;;735.03;677.03;;;3.80;99.90;;;;;;5053828;28;20045;-61
2022/01/26 12:35:06;;;;;;;707.05;651.88;;;3.80;99.90;;;;;;5052223;28;20056;-62
2022/01/26 12:38:08;;;;;;;660.03;606.33;;;3.90;99.90;;;;;;5051821;28;20051;-61
2022/01/26 12:43:43;;;;;;;699.70;645.58;;;3.90;99.90;;;;;;5072962;28;20071;-61
2022/01/26 12:46:12;;;;;;;717.03;658.15;;;3.90;99.90;;;;;;5054101;28;20052;-62
2022/01/26 12:48:40;;;;;;;693.45;637.80;;;3.90;99.90;;;;;;5061111;28;20047;-62
2022/01/26 12:51:08;;;;;;;646.33;593.42;;;3.90;99.90;;;;;;5052653;28;20045;-63
2022/01/26 12:53:36;;;;;;;670.72;618.97;;;3.90;99.90;;;;;;5052732;28;20045;-61
2022/01/26 12:56:07;;;;;;;691.55;638.03;;;3.90;99.90;;;;;;5052387;28;20037;-61
2022/01/26 12:58:36;;;;;;;655.92;604.88;;;3.90;99.90;;;;;;5069868;28;20056;-63
2022/01/26 13:01:07;;;;;;;672.65;620.35;;;3.90;99.90;;;;;;5072805;28;20237;-63
2022/01/26 13:03:35;;;;;;;685.60;632.33;;;3.90;99.90;;;;;;5072414;28;20047;-62
2022/01/26 13:06:10;;;;;;;695.40;641.60;;;3.90;99.90;;;;;;5071088;28;20045;-65
2022/01/26 13:08:56;;;;;;;662.45;609.70;;;4.00;99.90;;;;;;5072580;28;20048;-64
2022/01/26 13:11:24;;;;;;;686.63;633.00;;;4.00;99.90;;;;;;5072362;28;20050;-62
2022/01/26 13:14:01;;;;;;;703.47;648.15;;;4.00;99.90;;;;;;5071907;28;20059;-63
2022/01/26 13:16:34;;;;;;;750.75;691.85;;;4.00;99.90;;;;;;5072850;28;20119;-62
2022/01/26 13:19:35;;;;;;;725.38;669.63;;;4.00;99.90;;;;;;5057878;28;20112;-62
2022/01/26 13:24:57;;;;;;;704.13;649.75;;;4.00;99.90;;;;;;5070333;28;20087;-62
2022/01/26 13:27:50;;;;;;;700.60;646.13;;;4.00;99.90;;;;;;5075293;28;20048;-62
2022/01/26 13:30:31;;;;;;;749.28;687.15;;;4.00;99.90;;;;;;5076301;28;20139;-63
2022/01/26 13:35:44;;;;;;;656.85;605.83;;;4.00;99.90;;;;;;5060749;28;20107;-62
2022/01/26 13:38:26;;;;;;;719.30;663.63;;;4.00;99.90;;;;;;5054903;28;20041;-62
2022/01/26 13:41:02;;;;;;;685.35;631.17;;;4.00;99.90;;;;;;5055049;28;20500;-62
2022/01/26 13:46:40;;;;;;;674.22;621.40;;;4.00;99.90;;;;;;5054258;28;20134;-62
2022/01/26 13:49:17;;;;;;;695.22;642.20;;;4.00;99.90;;;;;;5053751;28;20127;-63
2022/01/26 13:51:59;;;;;;;713.92;658.67;;;4.10;99.90;;;;;;5056860;28;20052;-62
2022/01/26 13:57:37;;;;;;;663.03;613.72;;;4.30;99.90;;;;;;5055579;28;20076;-62
2022/01/26 13:59:57;;;;;;;687.72;635.00;;;4.20;99.90;;;;;;5068681;28;20040;-62
2022/01/26 14:02:26;;;;;;;655.80;607.20;;;4.20;99.90;;;;;;5074714;28;20053;-62
2022/01/26 14:04:52;;;;;;;662.35;613.30;;;4.30;99.90;;;;;;5075478;28;20178;-62
2022/01/26 14:07:18;;;;;;;674.00;622.60;;;4.30;99.90;;;;;;5073727;28;20056;-62
2022/01/26 14:09:45;;;;;;;695.78;642.63;;;4.30;99.90;;;;;;5054647;28;20041;-62
2022/01/26 14:12:14;;;;;;;670.88;620.67;;;4.30;99.90;;;;;;5055583;28;20059;-62
2022/01/26 14:14:44;;;;;;;678.03;627.45;;;4.30;99.90;;;;;;5055468;28;20067;-62
2022/01/26 14:17:15;;;;;;;644.30;597.15;;;4.30;99.90;;;;;;5060456;28;20548;-61
2022/01/26 14:20:07;;;;;;;712.50;657.53;;;4.30;99.90;;;;;;5055385;28;20057;-62
2022/01/26 14:23:01;;;;;;;675.85;625.55;;;4.30;99.90;;;;;;5054755;28;20045;-62
2022/01/26 14:25:28;;;;;;;644.00;594.67;;;4.40;99.90;;;;;;5059059;28;20047;-61
2022/01/26 14:27:58;;;;;;;641.70;594.15;;;4.40;99.90;;;;;;5075018;28;20529;-61
2022/01/26 14:30:38;;;;;;;655.83;608.10;;;4.40;99.90;;;;;;5074257;28;20060;-61
2022/01/26 14:33:17;;;;;;;665.95;617.65;;;4.40;99.90;;;;;;5074835;28;20048;-62
2022/01/26 14:54:28;;;;;;;646.17;601.20;;;4.40;99.90;;;;;;5074218;28;20063;-62
2022/01/26 15:29:58;;;;;;;610.47;566.78;;;4.50;99.90;;;;;;5054318;28;20124;-62